sensor_id;sensor_type;location;lat;lon;timestamp;P1;durP1;ratioP1;P2;durP2;ratioP2
14169;SDS011;7164;50.524;8.676;2022-07-29T00:01:44;5.82;;;1.48;;
14169;SDS011;7164;50.524;8.676;2022-07-29T00:04:10;2.80;;;1.10;;
14169;SDS011;7164;50.524;8.676;2022-07-29T00:06:36;4.20;;;1.20;;
14169;SDS011;7164;50.524;8.676;2022-07-29T00:09:02;5.20;;;1.30;;
14169;SDS011;7164;50.524;8.676;2022-07-29T00:11:27;2.47;;;1.20;;
14169;SDS011;7164;50.524;8.676;2022-07-29T00:13:53;7.05;;;1.20;;
14169;SDS011;7164;50.524;8.676;2022-07-29T00:16:19;5.25;;;1.20;;
14169;SDS011;7164;50.524;8.676;2022-07-29T00:18:44;4.45;;;1.30;;
14169;SDS011;7164;50.524;8.676;2022-07-29T00:21:10;10.27;;;1.38;;
14169;SDS011;7164;50.524;8.676;2022-07-29T00:23:36;3.58;;;1.48;;
14169;SDS011;7164;50.524;8.676;2022-07-29T00:26:01;6.28;;;1.33;;
14169;SDS011;7164;50.524;8.676;2022-07-29T00:28:27;3.90;;;0.80;;
14169;SDS011;7164;50.524;8.676;2022-07-29T00:30:52;2.30;;;1.20;;
14169;SDS011;7164;50.524;8.676;2022-07-29T00:33:18;2.17;;;1.02;;
14169;SDS011;7164;50.524;8.676;2022-07-29T00:35:44;2.55;;;1.10;;
14169;SDS011;7164;50.524;8.676;2022-07-29T00:38:13;3.83;;;1.17;;
14169;SDS011;7164;50.524;8.676;2022-07-29T00:40:41;5.20;;;1.60;;
14169;SDS011;7164;50.524;8.676;2022-07-29T00:43:08;6.20;;;2.13;;
14169;SDS011;7164;50.524;8.676;2022-07-29T00:45:34;6.88;;;1.33;;
14169;SDS011;7164;50.524;8.676;2022-07-29T00:48:00;5.43;;;1.50;;
14169;SDS011;7164;50.524;8.676;2022-07-29T00:50:26;3.20;;;1.38;;
14169;SDS011;7164;50.524;8.676;2022-07-29T00:52:52;2.55;;;1.10;;
14169;SDS011;7164;50.524;8.676;2022-07-29T00:55:18;3.78;;;1.17;;
14169;SDS011;7164;50.524;8.676;2022-07-29T00:57:46;6.53;;;1.63;;
14169;SDS011;7164;50.524;8.676;2022-07-29T01:00:14;5.75;;;1.10;;
14169;SDS011;7164;50.524;8.676;2022-07-29T01:02:42;5.88;;;0.98;;
14169;SDS011;7164;50.524;8.676;2022-07-29T01:05:08;3.60;;;1.50;;
14169;SDS011;7164;50.524;8.676;2022-07-29T01:07:36;4.63;;;1.38;;
14169;SDS011;7164;50.524;8.676;2022-07-29T01:10:04;3.45;;;0.80;;
14169;SDS011;7164;50.524;8.676;2022-07-29T01:12:31;11.00;;;1.80;;
14169;SDS011;7164;50.524;8.676;2022-07-29T01:14:58;3.40;;;1.55;;
14169;SDS011;7164;50.524;8.676;2022-07-29T01:17:26;2.70;;;1.48;;
14169;SDS011;7164;50.524;8.676;2022-07-29T01:30:33;10.20;;;1.33;;
14169;SDS011;7164;50.524;8.676;2022-07-29T01:33:02;8.35;;;1.05;;
14169;SDS011;7164;50.524;8.676;2022-07-29T01:35:36;4.72;;;1.42;;
14169;SDS011;7164;50.524;8.676;2022-07-29T01:40:40;7.33;;;1.67;;
14169;SDS011;7164;50.524;8.676;2022-07-29T01:43:27;3.72;;;1.10;;
14169;SDS011;7164;50.524;8.676;2022-07-29T01:46:01;8.60;;;1.58;;
14169;SDS011;7164;50.524;8.676;2022-07-29T01:51:09;3.30;;;1.30;;
14169;SDS011;7164;50.524;8.676;2022-07-29T01:58:43;2.65;;;1.30;;
14169;SDS011;7164;50.524;8.676;2022-07-29T02:01:10;4.32;;;1.83;;
14169;SDS011;7164;50.524;8.676;2022-07-29T02:03:38;8.55;;;1.70;;
14169;SDS011;7164;50.524;8.676;2022-07-29T02:06:05;3.38;;;1.83;;
14169;SDS011;7164;50.524;8.676;2022-07-29T02:08:32;4.15;;;1.23;;
14169;SDS011;7164;50.524;8.676;2022-07-29T02:11:00;4.30;;;1.58;;
14169;SDS011;7164;50.524;8.676;2022-07-29T02:13:29;3.00;;;1.42;;
14169;SDS011;7164;50.524;8.676;2022-07-29T02:15:57;4.35;;;1.55;;
14169;SDS011;7164;50.524;8.676;2022-07-29T02:18:25;4.82;;;1.77;;
14169;SDS011;7164;50.524;8.676;2022-07-29T02:20:55;5.70;;;1.60;;
14169;SDS011;7164;50.524;8.676;2022-07-29T02:23:23;3.67;;;1.58;;
14169;SDS011;7164;50.524;8.676;2022-07-29T02:25:53;5.47;;;1.45;;
14169;SDS011;7164;50.524;8.676;2022-07-29T02:30:52;3.20;;;1.30;;
14169;SDS011;7164;50.524;8.676;2022-07-29T02:33:20;3.05;;;1.60;;
14169;SDS011;7164;50.524;8.676;2022-07-29T02:35:48;5.05;;;1.50;;
14169;SDS011;7164;50.524;8.676;2022-07-29T02:38:17;7.10;;;1.60;;
14169;SDS011;7164;50.524;8.676;2022-07-29T02:41:04;8.38;;;2.03;;
14169;SDS011;7164;50.524;8.676;2022-07-29T02:43:34;13.07;;;2.17;;
14169;SDS011;7164;50.524;8.676;2022-07-29T02:46:02;2.17;;;1.40;;
14169;SDS011;7164;50.524;8.676;2022-07-29T02:48:36;6.75;;;1.77;;
14169;SDS011;7164;50.524;8.676;2022-07-29T02:51:12;4.63;;;1.20;;
14169;SDS011;7164;50.524;8.676;2022-07-29T02:53:42;5.97;;;1.65;;
14169;SDS011;7164;50.524;8.676;2022-07-29T02:56:13;4.82;;;1.48;;
14169;SDS011;7164;50.524;8.676;2022-07-29T02:58:42;4.80;;;1.30;;
14169;SDS011;7164;50.524;8.676;2022-07-29T03:01:13;2.53;;;1.40;;
14169;SDS011;7164;50.524;8.676;2022-07-29T03:03:41;4.65;;;1.70;;
14169;SDS011;7164;50.524;8.676;2022-07-29T03:06:09;5.82;;;1.65;;
14169;SDS011;7164;50.524;8.676;2022-07-29T03:08:38;2.67;;;1.88;;
14169;SDS011;7164;50.524;8.676;2022-07-29T03:11:05;3.67;;;1.58;;
14169;SDS011;7164;50.524;8.676;2022-07-29T03:13:32;4.35;;;1.30;;
14169;SDS011;7164;50.524;8.676;2022-07-29T03:15:58;5.03;;;1.92;;
14169;SDS011;7164;50.524;8.676;2022-07-29T03:18:24;7.53;;;1.55;;
14169;SDS011;7164;50.524;8.676;2022-07-29T03:20:50;3.45;;;1.55;;
14169;SDS011;7164;50.524;8.676;2022-07-29T03:23:23;5.30;;;1.65;;
14169;SDS011;7164;50.524;8.676;2022-07-29T03:25:49;6.15;;;2.35;;
14169;SDS011;7164;50.524;8.676;2022-07-29T03:28:15;3.05;;;1.60;;
14169;SDS011;7164;50.524;8.676;2022-07-29T03:30:41;3.17;;;1.40;;
14169;SDS011;7164;50.524;8.676;2022-07-29T03:33:06;5.53;;;1.92;;
14169;SDS011;7164;50.524;8.676;2022-07-29T03:35:32;3.60;;;1.92;;
14169;SDS011;7164;50.524;8.676;2022-07-29T03:37:58;6.25;;;1.65;;
14169;SDS011;7164;50.524;8.676;2022-07-29T03:40:33;4.78;;;2.17;;
14169;SDS011;7164;50.524;8.676;2022-07-29T03:43:02;9.40;;;2.00;;
14169;SDS011;7164;50.524;8.676;2022-07-29T03:45:30;5.07;;;1.83;;
14169;SDS011;7164;50.524;8.676;2022-07-29T03:48:02;8.20;;;2.33;;
14169;SDS011;7164;50.524;8.676;2022-07-29T03:50:35;8.25;;;1.60;;
14169;SDS011;7164;50.524;8.676;2022-07-29T03:53:01;4.68;;;1.80;;
14169;SDS011;7164;50.524;8.676;2022-07-29T03:55:28;4.95;;;2.13;;
14169;SDS011;7164;50.524;8.676;2022-07-29T03:57:58;2.13;;;1.60;;
14169;SDS011;7164;50.524;8.676;2022-07-29T04:00:26;15.10;;;2.28;;
14169;SDS011;7164;50.524;8.676;2022-07-29T04:02:53;4.57;;;1.83;;
14169;SDS011;7164;50.524;8.676;2022-07-29T04:05:19;9.23;;;2.20;;
14169;SDS011;7164;50.524;8.676;2022-07-29T04:07:45;12.27;;;2.38;;
14169;SDS011;7164;50.524;8.676;2022-07-29T04:10:12;9.52;;;2.15;;
14169;SDS011;7164;50.524;8.676;2022-07-29T04:12:38;4.68;;;2.40;;
14169;SDS011;7164;50.524;8.676;2022-07-29T04:15:04;9.52;;;2.60;;
14169;SDS011;7164;50.524;8.676;2022-07-29T04:17:30;5.72;;;2.55;;
14169;SDS011;7164;50.524;8.676;2022-07-29T04:19:55;6.22;;;1.95;;
14169;SDS011;7164;50.524;8.676;2022-07-29T04:22:21;5.32;;;2.20;;
14169;SDS011;7164;50.524;8.676;2022-07-29T04:24:46;5.50;;;2.40;;
14169;SDS011;7164;50.524;8.676;2022-07-29T04:27:12;7.75;;;2.47;;
14169;SDS011;7164;50.524;8.676;2022-07-29T04:29:38;7.75;;;2.22;;
14169;SDS011;7164;50.524;8.676;2022-07-29T04:32:03;7.50;;;2.25;;
14169;SDS011;7164;50.524;8.676;2022-07-29T04:34:29;6.00;;;1.65;;
14169;SDS011;7164;50.524;8.676;2022-07-29T04:36:55;5.15;;;2.38;;
14169;SDS011;7164;50.524;8.676;2022-07-29T04:39:21;3.42;;;2.30;;
14169;SDS011;7164;50.524;8.676;2022-07-29T04:42:03;4.50;;;2.38;;
14169;SDS011;7164;50.524;8.676;2022-07-29T04:44:29;6.55;;;2.65;;
14169;SDS011;7164;50.524;8.676;2022-07-29T04:46:55;6.82;;;2.55;;
14169;SDS011;7164;50.524;8.676;2022-07-29T04:49:22;5.03;;;2.20;;
14169;SDS011;7164;50.524;8.676;2022-07-29T04:51:48;4.95;;;2.75;;
14169;SDS011;7164;50.524;8.676;2022-07-29T04:54:14;8.77;;;2.70;;
14169;SDS011;7164;50.524;8.676;2022-07-29T04:56:39;5.65;;;2.17;;
14169;SDS011;7164;50.524;8.676;2022-07-29T04:59:06;5.93;;;2.13;;
14169;SDS011;7164;50.524;8.676;2022-07-29T05:01:32;6.50;;;2.75;;
14169;SDS011;7164;50.524;8.676;2022-07-29T05:03:57;8.98;;;2.25;;
14169;SDS011;7164;50.524;8.676;2022-07-29T05:06:23;9.10;;;2.33;;
14169;SDS011;7164;50.524;8.676;2022-07-29T05:08:49;5.35;;;2.10;;
14169;SDS011;7164;50.524;8.676;2022-07-29T05:11:14;5.20;;;2.13;;
14169;SDS011;7164;50.524;8.676;2022-07-29T05:13:40;5.68;;;3.00;;
14169;SDS011;7164;50.524;8.676;2022-07-29T05:16:06;7.35;;;3.03;;
14169;SDS011;7164;50.524;8.676;2022-07-29T05:18:33;5.47;;;2.45;;
14169;SDS011;7164;50.524;8.676;2022-07-29T05:20:59;4.65;;;2.20;;
14169;SDS011;7164;50.524;8.676;2022-07-29T05:23:24;5.63;;;1.77;;
14169;SDS011;7164;50.524;8.676;2022-07-29T05:25:50;6.45;;;2.30;;
14169;SDS011;7164;50.524;8.676;2022-07-29T05:28:15;4.60;;;2.10;;
14169;SDS011;7164;50.524;8.676;2022-07-29T05:30:41;5.80;;;2.60;;
14169;SDS011;7164;50.524;8.676;2022-07-29T05:33:07;6.55;;;2.13;;
14169;SDS011;7164;50.524;8.676;2022-07-29T05:35:32;10.70;;;2.55;;
14169;SDS011;7164;50.524;8.676;2022-07-29T05:37:59;9.10;;;2.20;;
14169;SDS011;7164;50.524;8.676;2022-07-29T05:40:25;4.70;;;2.30;;
14169;SDS011;7164;50.524;8.676;2022-07-29T05:42:51;4.45;;;2.28;;
14169;SDS011;7164;50.524;8.676;2022-07-29T05:45:16;8.68;;;2.03;;
14169;SDS011;7164;50.524;8.676;2022-07-29T05:47:42;7.05;;;3.03;;
14169;SDS011;7164;50.524;8.676;2022-07-29T05:50:08;5.47;;;2.58;;
14169;SDS011;7164;50.524;8.676;2022-07-29T05:52:33;12.80;;;2.90;;
14169;SDS011;7164;50.524;8.676;2022-07-29T05:54:59;7.25;;;2.50;;
14169;SDS011;7164;50.524;8.676;2022-07-29T05:57:27;8.55;;;2.22;;
14169;SDS011;7164;50.524;8.676;2022-07-29T05:59:53;5.25;;;1.85;;
14169;SDS011;7164;50.524;8.676;2022-07-29T06:02:18;3.40;;;2.20;;
14169;SDS011;7164;50.524;8.676;2022-07-29T06:04:44;11.00;;;2.75;;
14169;SDS011;7164;50.524;8.676;2022-07-29T06:07:10;2.97;;;1.65;;
14169;SDS011;7164;50.524;8.676;2022-07-29T06:09:36;12.73;;;2.42;;
14169;SDS011;7164;50.524;8.676;2022-07-29T06:12:02;4.60;;;2.13;;
14169;SDS011;7164;50.524;8.676;2022-07-29T06:14:28;4.28;;;1.92;;
14169;SDS011;7164;50.524;8.676;2022-07-29T06:16:54;9.30;;;2.00;;
14169;SDS011;7164;50.524;8.676;2022-07-29T06:19:19;6.78;;;2.20;;
14169;SDS011;7164;50.524;8.676;2022-07-29T06:21:45;5.32;;;2.13;;
14169;SDS011;7164;50.524;8.676;2022-07-29T06:24:12;3.67;;;1.77;;
14169;SDS011;7164;50.524;8.676;2022-07-29T06:26:38;7.88;;;2.22;;
14169;SDS011;7164;50.524;8.676;2022-07-29T06:29:05;6.38;;;2.13;;
14169;SDS011;7164;50.524;8.676;2022-07-29T06:31:31;7.00;;;2.20;;
14169;SDS011;7164;50.524;8.676;2022-07-29T06:33:56;9.13;;;2.10;;
14169;SDS011;7164;50.524;8.676;2022-07-29T06:36:22;7.22;;;1.85;;
14169;SDS011;7164;50.524;8.676;2022-07-29T06:38:48;7.68;;;1.75;;
14169;SDS011;7164;50.524;8.676;2022-07-29T06:41:13;4.68;;;1.83;;
14169;SDS011;7164;50.524;8.676;2022-07-29T06:43:41;6.18;;;2.15;;
14169;SDS011;7164;50.524;8.676;2022-07-29T06:46:08;7.47;;;2.10;;
14169;SDS011;7164;50.524;8.676;2022-07-29T06:48:51;9.65;;;1.88;;
14169;SDS011;7164;50.524;8.676;2022-07-29T06:51:17;6.38;;;1.80;;
14169;SDS011;7164;50.524;8.676;2022-07-29T06:53:43;9.13;;;2.50;;
14169;SDS011;7164;50.524;8.676;2022-07-29T06:56:09;5.00;;;2.38;;
14169;SDS011;7164;50.524;8.676;2022-07-29T06:58:35;4.90;;;1.95;;
14169;SDS011;7164;50.524;8.676;2022-07-29T07:01:02;5.70;;;2.40;;
14169;SDS011;7164;50.524;8.676;2022-07-29T07:03:29;4.43;;;2.13;;
14169;SDS011;7164;50.524;8.676;2022-07-29T07:05:55;5.25;;;2.00;;
14169;SDS011;7164;50.524;8.676;2022-07-29T07:08:21;7.95;;;1.73;;
14169;SDS011;7164;50.524;8.676;2022-07-29T07:10:48;9.98;;;2.17;;
14169;SDS011;7164;50.524;8.676;2022-07-29T07:13:14;7.75;;;3.65;;
14169;SDS011;7164;50.524;8.676;2022-07-29T07:15:42;5.95;;;3.30;;
14169;SDS011;7164;50.524;8.676;2022-07-29T07:18:08;5.70;;;2.50;;
14169;SDS011;7164;50.524;8.676;2022-07-29T07:20:34;6.85;;;2.30;;
14169;SDS011;7164;50.524;8.676;2022-07-29T07:23:00;8.90;;;2.40;;
14169;SDS011;7164;50.524;8.676;2022-07-29T07:25:26;6.53;;;2.42;;
14169;SDS011;7164;50.524;8.676;2022-07-29T07:27:51;6.93;;;2.20;;
14169;SDS011;7164;50.524;8.676;2022-07-29T07:30:17;3.70;;;2.17;;
14169;SDS011;7164;50.524;8.676;2022-07-29T07:32:43;6.35;;;2.40;;
14169;SDS011;7164;50.524;8.676;2022-07-29T07:35:09;5.00;;;1.77;;
14169;SDS011;7164;50.524;8.676;2022-07-29T07:37:35;7.05;;;2.20;;
14169;SDS011;7164;50.524;8.676;2022-07-29T07:40:01;3.40;;;2.17;;
14169;SDS011;7164;50.524;8.676;2022-07-29T07:42:27;4.40;;;1.60;;
14169;SDS011;7164;50.524;8.676;2022-07-29T07:44:53;6.55;;;2.05;;
14169;SDS011;7164;50.524;8.676;2022-07-29T07:47:19;4.70;;;2.05;;
14169;SDS011;7164;50.524;8.676;2022-07-29T07:49:45;5.20;;;2.30;;
14169;SDS011;7164;50.524;8.676;2022-07-29T07:52:11;4.25;;;1.88;;
14169;SDS011;7164;50.524;8.676;2022-07-29T07:54:37;2.03;;;1.65;;
14169;SDS011;7164;50.524;8.676;2022-07-29T07:57:03;6.95;;;2.05;;
14169;SDS011;7164;50.524;8.676;2022-07-29T07:59:28;2.22;;;1.80;;
14169;SDS011;7164;50.524;8.676;2022-07-29T08:01:54;8.20;;;2.00;;
14169;SDS011;7164;50.524;8.676;2022-07-29T08:04:19;7.50;;;2.42;;
14169;SDS011;7164;50.524;8.676;2022-07-29T08:06:45;6.05;;;2.33;;
14169;SDS011;7164;50.524;8.676;2022-07-29T08:09:11;3.22;;;1.98;;
14169;SDS011;7164;50.524;8.676;2022-07-29T08:11:37;3.45;;;1.70;;
14169;SDS011;7164;50.524;8.676;2022-07-29T08:14:02;2.97;;;1.90;;
14169;SDS011;7164;50.524;8.676;2022-07-29T08:16:28;4.35;;;2.35;;
14169;SDS011;7164;50.524;8.676;2022-07-29T08:18:54;3.22;;;1.92;;
14169;SDS011;7164;50.524;8.676;2022-07-29T08:21:22;4.40;;;2.08;;
14169;SDS011;7164;50.524;8.676;2022-07-29T08:23:48;3.38;;;2.00;;
14169;SDS011;7164;50.524;8.676;2022-07-29T08:26:17;4.97;;;2.20;;
14169;SDS011;7164;50.524;8.676;2022-07-29T08:28:43;4.35;;;1.73;;
14169;SDS011;7164;50.524;8.676;2022-07-29T08:31:10;6.10;;;1.75;;
14169;SDS011;7164;50.524;8.676;2022-07-29T08:33:37;4.40;;;2.08;;
14169;SDS011;7164;50.524;8.676;2022-07-29T08:36:03;5.72;;;2.25;;
14169;SDS011;7164;50.524;8.676;2022-07-29T08:38:29;4.97;;;2.03;;
14169;SDS011;7164;50.524;8.676;2022-07-29T08:40:55;4.30;;;2.35;;
14169;SDS011;7164;50.524;8.676;2022-07-29T08:43:21;3.95;;;2.10;;
14169;SDS011;7164;50.524;8.676;2022-07-29T08:45:48;5.38;;;1.75;;
14169;SDS011;7164;50.524;8.676;2022-07-29T08:51:09;4.63;;;2.22;;
14169;SDS011;7164;50.524;8.676;2022-07-29T08:53:40;4.90;;;2.30;;
14169;SDS011;7164;50.524;8.676;2022-07-29T08:56:07;8.95;;;2.45;;
14169;SDS011;7164;50.524;8.676;2022-07-29T08:58:37;2.78;;;2.00;;
14169;SDS011;7164;50.524;8.676;2022-07-29T09:01:04;3.42;;;2.05;;
14169;SDS011;7164;50.524;8.676;2022-07-29T09:03:30;6.88;;;2.10;;
14169;SDS011;7164;50.524;8.676;2022-07-29T09:06:01;6.13;;;2.35;;
14169;SDS011;7164;50.524;8.676;2022-07-29T09:08:27;5.97;;;2.38;;
14169;SDS011;7164;50.524;8.676;2022-07-29T09:10:53;3.20;;;1.80;;
14169;SDS011;7164;50.524;8.676;2022-07-29T09:13:23;4.55;;;1.90;;
14169;SDS011;7164;50.524;8.676;2022-07-29T09:15:49;5.45;;;2.33;;
14169;SDS011;7164;50.524;8.676;2022-07-29T09:18:34;4.78;;;1.90;;
14169;SDS011;7164;50.524;8.676;2022-07-29T09:21:03;5.68;;;2.42;;
14169;SDS011;7164;50.524;8.676;2022-07-29T09:24:07;3.13;;;2.00;;
14169;SDS011;7164;50.524;8.676;2022-07-29T09:26:44;2.92;;;1.90;;
14169;SDS011;7164;50.524;8.676;2022-07-29T09:29:16;3.15;;;2.13;;
14169;SDS011;7164;50.524;8.676;2022-07-29T09:31:44;5.82;;;2.42;;
14169;SDS011;7164;50.524;8.676;2022-07-29T09:34:12;4.22;;;2.10;;
14169;SDS011;7164;50.524;8.676;2022-07-29T09:36:42;4.05;;;2.13;;
14169;SDS011;7164;50.524;8.676;2022-07-29T09:39:11;4.53;;;2.22;;
14169;SDS011;7164;50.524;8.676;2022-07-29T09:42:11;5.05;;;2.13;;
14169;SDS011;7164;50.524;8.676;2022-07-29T09:47:47;5.13;;;1.95;;
14169;SDS011;7164;50.524;8.676;2022-07-29T09:50:14;5.20;;;2.42;;
14169;SDS011;7164;50.524;8.676;2022-07-29T09:52:44;3.33;;;2.20;;
14169;SDS011;7164;50.524;8.676;2022-07-29T09:55:15;3.13;;;2.30;;
14169;SDS011;7164;50.524;8.676;2022-07-29T09:57:41;5.57;;;1.95;;
14169;SDS011;7164;50.524;8.676;2022-07-29T10:02:35;8.77;;;1.92;;
14169;SDS011;7164;50.524;8.676;2022-07-29T10:05:03;7.50;;;2.38;;
14169;SDS011;7164;50.524;8.676;2022-07-29T10:07:53;6.45;;;2.33;;
14169;SDS011;7164;50.524;8.676;2022-07-29T10:13:07;3.50;;;1.98;;
14169;SDS011;7164;50.524;8.676;2022-07-29T10:15:35;4.15;;;2.20;;
14169;SDS011;7164;50.524;8.676;2022-07-29T10:18:04;7.10;;;1.63;;
14169;SDS011;7164;50.524;8.676;2022-07-29T10:20:31;3.28;;;1.88;;
14169;SDS011;7164;50.524;8.676;2022-07-29T10:22:56;9.32;;;2.03;;
14169;SDS011;7164;50.524;8.676;2022-07-29T10:25:23;4.53;;;2.03;;
14169;SDS011;7164;50.524;8.676;2022-07-29T10:27:50;6.10;;;1.92;;
14169;SDS011;7164;50.524;8.676;2022-07-29T10:30:17;5.47;;;2.30;;
14169;SDS011;7164;50.524;8.676;2022-07-29T10:38:21;4.45;;;1.88;;
14169;SDS011;7164;50.524;8.676;2022-07-29T10:40:57;5.22;;;2.42;;
14169;SDS011;7164;50.524;8.676;2022-07-29T10:43:56;6.25;;;2.10;;
14169;SDS011;7164;50.524;8.676;2022-07-29T10:46:23;6.60;;;2.13;;
14169;SDS011;7164;50.524;8.676;2022-07-29T10:52:00;5.15;;;2.20;;
14169;SDS011;7164;50.524;8.676;2022-07-29T10:54:45;3.90;;;2.13;;
14169;SDS011;7164;50.524;8.676;2022-07-29T11:05:07;4.72;;;2.20;;
14169;SDS011;7164;50.524;8.676;2022-07-29T11:07:36;4.68;;;2.10;;
14169;SDS011;7164;50.524;8.676;2022-07-29T11:10:22;5.00;;;2.53;;
14169;SDS011;7164;50.524;8.676;2022-07-29T11:12:48;5.45;;;2.45;;
14169;SDS011;7164;50.524;8.676;2022-07-29T11:15:16;3.88;;;2.55;;
14169;SDS011;7164;50.524;8.676;2022-07-29T11:28:39;7.53;;;2.42;;
14169;SDS011;7164;50.524;8.676;2022-07-29T11:31:16;6.22;;;2.47;;
14169;SDS011;7164;50.524;8.676;2022-07-29T11:33:44;5.50;;;2.17;;
14169;SDS011;7164;50.524;8.676;2022-07-29T11:36:11;3.47;;;2.35;;
14169;SDS011;7164;50.524;8.676;2022-07-29T11:38:40;3.25;;;2.22;;
14169;SDS011;7164;50.524;8.676;2022-07-29T11:43:57;4.80;;;1.70;;
14169;SDS011;7164;50.524;8.676;2022-07-29T11:49:08;4.00;;;2.13;;
14169;SDS011;7164;50.524;8.676;2022-07-29T11:51:37;3.22;;;1.90;;
14169;SDS011;7164;50.524;8.676;2022-07-29T11:54:04;4.40;;;2.30;;
14169;SDS011;7164;50.524;8.676;2022-07-29T11:56:30;3.65;;;2.00;;
14169;SDS011;7164;50.524;8.676;2022-07-29T11:59:06;6.40;;;2.03;;
14169;SDS011;7164;50.524;8.676;2022-07-29T12:01:34;3.50;;;1.73;;
14169;SDS011;7164;50.524;8.676;2022-07-29T12:04:03;6.40;;;2.28;;
14169;SDS011;7164;50.524;8.676;2022-07-29T12:06:30;3.00;;;2.47;;
14169;SDS011;7164;50.524;8.676;2022-07-29T12:08:56;3.40;;;2.50;;
14169;SDS011;7164;50.524;8.676;2022-07-29T12:11:22;4.75;;;2.10;;
14169;SDS011;7164;50.524;8.676;2022-07-29T12:13:48;5.53;;;2.25;;
14169;SDS011;7164;50.524;8.676;2022-07-29T12:16:14;4.03;;;2.13;;
14169;SDS011;7164;50.524;8.676;2022-07-29T12:18:40;4.32;;;2.30;;
14169;SDS011;7164;50.524;8.676;2022-07-29T12:21:06;4.40;;;2.60;;
14169;SDS011;7164;50.524;8.676;2022-07-29T12:23:33;3.28;;;2.53;;
14169;SDS011;7164;50.524;8.676;2022-07-29T12:25:59;4.43;;;2.20;;
14169;SDS011;7164;50.524;8.676;2022-07-29T12:28:25;3.65;;;2.28;;
14169;SDS011;7164;50.524;8.676;2022-07-29T12:30:51;4.97;;;2.17;;
14169;SDS011;7164;50.524;8.676;2022-07-29T12:33:19;4.28;;;2.35;;
14169;SDS011;7164;50.524;8.676;2022-07-29T12:35:57;2.20;;;1.73;;
14169;SDS011;7164;50.524;8.676;2022-07-29T12:38:27;3.72;;;1.90;;
14169;SDS011;7164;50.524;8.676;2022-07-29T12:40:53;4.25;;;2.13;;
14169;SDS011;7164;50.524;8.676;2022-07-29T12:43:23;2.33;;;1.73;;
14169;SDS011;7164;50.524;8.676;2022-07-29T12:45:53;3.80;;;2.17;;
14169;SDS011;7164;50.524;8.676;2022-07-29T12:48:38;4.95;;;2.35;;
14169;SDS011;7164;50.524;8.676;2022-07-29T12:51:05;4.53;;;2.13;;
14169;SDS011;7164;50.524;8.676;2022-07-29T12:53:32;3.95;;;1.85;;
14169;SDS011;7164;50.524;8.676;2022-07-29T12:55:58;5.43;;;2.92;;
14169;SDS011;7164;50.524;8.676;2022-07-29T12:58:27;5.85;;;3.80;;
14169;SDS011;7164;50.524;8.676;2022-07-29T13:06:32;2.33;;;1.73;;
14169;SDS011;7164;50.524;8.676;2022-07-29T13:11:34;5.13;;;2.00;;
14169;SDS011;7164;50.524;8.676;2022-07-29T13:14:01;7.20;;;2.30;;
14169;SDS011;7164;50.524;8.676;2022-07-29T13:16:28;6.30;;;4.00;;
14169;SDS011;7164;50.524;8.676;2022-07-29T13:21:57;4.18;;;2.28;;
14169;SDS011;7164;50.524;8.676;2022-07-29T13:24:23;7.30;;;2.70;;
14169;SDS011;7164;50.524;8.676;2022-07-29T13:26:49;4.80;;;2.78;;
14169;SDS011;7164;50.524;8.676;2022-07-29T13:29:16;3.67;;;2.00;;
14169;SDS011;7164;50.524;8.676;2022-07-29T13:31:42;3.75;;;2.03;;
14169;SDS011;7164;50.524;8.676;2022-07-29T13:34:07;5.07;;;2.17;;
14169;SDS011;7164;50.524;8.676;2022-07-29T13:36:33;3.83;;;2.08;;
14169;SDS011;7164;50.524;8.676;2022-07-29T13:38:59;5.03;;;2.67;;
14169;SDS011;7164;50.524;8.676;2022-07-29T13:41:26;4.40;;;2.03;;
14169;SDS011;7164;50.524;8.676;2022-07-29T13:43:51;3.78;;;2.40;;
14169;SDS011;7164;50.524;8.676;2022-07-29T13:46:17;3.00;;;2.25;;
14169;SDS011;7164;50.524;8.676;2022-07-29T13:48:43;6.72;;;1.90;;
14169;SDS011;7164;50.524;8.676;2022-07-29T13:51:08;5.45;;;2.92;;
14169;SDS011;7164;50.524;8.676;2022-07-29T13:53:34;7.40;;;2.10;;
14169;SDS011;7164;50.524;8.676;2022-07-29T13:56:00;3.78;;;2.25;;
14169;SDS011;7164;50.524;8.676;2022-07-29T13:58:26;3.90;;;2.28;;
14169;SDS011;7164;50.524;8.676;2022-07-29T14:00:51;1.90;;;1.65;;
14169;SDS011;7164;50.524;8.676;2022-07-29T14:03:17;7.95;;;2.38;;
14169;SDS011;7164;50.524;8.676;2022-07-29T14:05:43;2.65;;;2.17;;
14169;SDS011;7164;50.524;8.676;2022-07-29T14:08:08;4.60;;;2.10;;
14169;SDS011;7164;50.524;8.676;2022-07-29T14:10:34;2.88;;;2.00;;
14169;SDS011;7164;50.524;8.676;2022-07-29T14:13:00;2.53;;;2.20;;
14169;SDS011;7164;50.524;8.676;2022-07-29T14:15:25;5.50;;;2.40;;
14169;SDS011;7164;50.524;8.676;2022-07-29T14:17:52;3.22;;;2.17;;
14169;SDS011;7164;50.524;8.676;2022-07-29T14:20:18;4.47;;;2.20;;
14169;SDS011;7164;50.524;8.676;2022-07-29T14:22:44;3.03;;;2.20;;
14169;SDS011;7164;50.524;8.676;2022-07-29T14:25:09;2.47;;;2.08;;
14169;SDS011;7164;50.524;8.676;2022-07-29T14:27:35;4.47;;;2.10;;
14169;SDS011;7164;50.524;8.676;2022-07-29T14:30:00;3.80;;;2.50;;
14169;SDS011;7164;50.524;8.676;2022-07-29T14:32:26;4.10;;;2.35;;
14169;SDS011;7164;50.524;8.676;2022-07-29T14:34:51;2.40;;;2.20;;
14169;SDS011;7164;50.524;8.676;2022-07-29T14:37:17;4.53;;;2.17;;
14169;SDS011;7164;50.524;8.676;2022-07-29T14:39:43;3.17;;;2.10;;
14169;SDS011;7164;50.524;8.676;2022-07-29T14:42:09;4.88;;;2.17;;
14169;SDS011;7164;50.524;8.676;2022-07-29T14:44:35;5.28;;;2.58;;
14169;SDS011;7164;50.524;8.676;2022-07-29T14:47:00;6.03;;;2.20;;
14169;SDS011;7164;50.524;8.676;2022-07-29T14:49:26;3.67;;;2.40;;
14169;SDS011;7164;50.524;8.676;2022-07-29T14:51:52;7.72;;;4.90;;
14169;SDS011;7164;50.524;8.676;2022-07-29T14:54:18;7.30;;;4.32;;
14169;SDS011;7164;50.524;8.676;2022-07-29T14:56:43;5.88;;;4.40;;
14169;SDS011;7164;50.524;8.676;2022-07-29T14:59:09;6.65;;;3.20;;
14169;SDS011;7164;50.524;8.676;2022-07-29T15:01:34;5.45;;;3.00;;
14169;SDS011;7164;50.524;8.676;2022-07-29T15:04:00;4.82;;;2.90;;
14169;SDS011;7164;50.524;8.676;2022-07-29T15:06:26;5.30;;;2.60;;
14169;SDS011;7164;50.524;8.676;2022-07-29T15:08:51;6.07;;;2.63;;
14169;SDS011;7164;50.524;8.676;2022-07-29T15:11:17;6.95;;;2.65;;
14169;SDS011;7164;50.524;8.676;2022-07-29T15:13:42;6.15;;;2.70;;
14169;SDS011;7164;50.524;8.676;2022-07-29T15:16:08;5.13;;;2.60;;
14169;SDS011;7164;50.524;8.676;2022-07-29T15:18:34;4.72;;;2.85;;
14169;SDS011;7164;50.524;8.676;2022-07-29T15:20:59;3.70;;;2.60;;
14169;SDS011;7164;50.524;8.676;2022-07-29T15:23:26;5.20;;;2.53;;
14169;SDS011;7164;50.524;8.676;2022-07-29T15:25:52;5.72;;;2.95;;
14169;SDS011;7164;50.524;8.676;2022-07-29T15:28:18;7.18;;;3.00;;
14169;SDS011;7164;50.524;8.676;2022-07-29T15:30:43;8.20;;;3.25;;
14169;SDS011;7164;50.524;8.676;2022-07-29T15:33:09;4.53;;;3.10;;
14169;SDS011;7164;50.524;8.676;2022-07-29T15:35:35;5.97;;;3.08;;
14169;SDS011;7164;50.524;8.676;2022-07-29T15:38:01;5.25;;;3.45;;
14169;SDS011;7164;50.524;8.676;2022-07-29T15:40:27;6.18;;;2.70;;
14169;SDS011;7164;50.524;8.676;2022-07-29T15:42:53;5.40;;;3.17;;
14169;SDS011;7164;50.524;8.676;2022-07-29T15:45:19;3.42;;;2.50;;
14169;SDS011;7164;50.524;8.676;2022-07-29T15:47:45;6.00;;;2.80;;
14169;SDS011;7164;50.524;8.676;2022-07-29T15:50:10;8.23;;;2.70;;
14169;SDS011;7164;50.524;8.676;2022-07-29T15:52:46;3.05;;;2.58;;
14169;SDS011;7164;50.524;8.676;2022-07-29T15:55:11;5.07;;;2.88;;
14169;SDS011;7164;50.524;8.676;2022-07-29T15:57:37;2.95;;;2.17;;
14169;SDS011;7164;50.524;8.676;2022-07-29T16:00:04;4.72;;;3.08;;
14169;SDS011;7164;50.524;8.676;2022-07-29T16:02:31;4.40;;;2.80;;
14169;SDS011;7164;50.524;8.676;2022-07-29T16:04:56;3.95;;;2.45;;
14169;SDS011;7164;50.524;8.676;2022-07-29T16:07:22;5.05;;;2.83;;
14169;SDS011;7164;50.524;8.676;2022-07-29T16:09:47;5.60;;;3.00;;
14169;SDS011;7164;50.524;8.676;2022-07-29T16:12:13;6.35;;;2.92;;
14169;SDS011;7164;50.524;8.676;2022-07-29T16:14:39;4.90;;;2.67;;
14169;SDS011;7164;50.524;8.676;2022-07-29T16:17:04;5.78;;;2.90;;
14169;SDS011;7164;50.524;8.676;2022-07-29T16:19:30;4.82;;;3.15;;
14169;SDS011;7164;50.524;8.676;2022-07-29T16:21:55;6.60;;;2.95;;